createdAt,value
2023-02-06T00:01:33.690Z,78.65
2023-02-06T00:04:01.970Z,78.76
2023-02-06T00:06:30.115Z,78.52
2023-02-06T00:08:58.249Z,77.75
2023-02-06T00:11:26.590Z,77.90
2023-02-06T00:13:55.104Z,78.28
2023-02-06T00:16:25.530Z,79.01
2023-02-06T00:18:56.450Z,77.62
2023-02-06T00:21:26.272Z,79.30
2023-02-06T00:23:56.009Z,78.66
2023-02-06T00:26:24.773Z,77.06
2023-02-06T00:28:52.986Z,78.72
2023-02-06T00:31:21.249Z,78.92
2023-02-06T00:33:49.431Z,79.48
2023-02-06T00:36:19.167Z,79.48
2023-02-06T00:38:47.348Z,79.17
2023-02-06T00:41:15.448Z,78.92
2023-02-06T00:43:43.734Z,79.92
2023-02-06T00:46:12.199Z,79.85
2023-02-06T00:48:40.395Z,80.29
2023-02-06T00:51:08.528Z,80.06
2023-02-06T00:53:38.136Z,79.68
2023-02-06T00:56:06.574Z,80.07
2023-02-06T00:58:34.868Z,80.78
2023-02-06T01:01:03.057Z,80.50
2023-02-06T01:03:31.211Z,80.32
2023-02-06T01:05:59.262Z,79.63
2023-02-06T01:08:27.543Z,79.90
2023-02-06T01:10:57.100Z,79.14
2023-02-06T01:13:25.200Z,80.37
2023-02-06T01:15:53.457Z,80.61
2023-02-06T01:18:21.728Z,80.08
2023-02-06T01:20:49.921Z,79.96
2023-02-06T01:23:18.079Z,80.16
2023-02-06T01:25:46.234Z,80.77
2023-02-06T01:28:15.816Z,81.42
2023-02-06T01:30:44.034Z,80.99
2023-02-06T01:33:12.264Z,80.75
2023-02-06T01:35:40.385Z,79.64
2023-02-06T01:38:08.525Z,80.02
2023-02-06T01:40:36.671Z,80.16
2023-02-06T01:43:04.830Z,80.25
2023-02-06T01:45:46.286Z,80.62
2023-02-06T01:48:21.655Z,81.63
2023-02-06T01:50:53.084Z,81.58
2023-02-06T01:53:22.791Z,81.56
2023-02-06T01:55:54.045Z,81.79
2023-02-06T01:58:29.431Z,82.23
2023-02-06T02:01:00.638Z,82.24
2023-02-06T02:03:31.716Z,82.86
2023-02-06T02:06:03.627Z,81.34
2023-02-06T02:08:37.334Z,80.47
2023-02-06T02:11:08.084Z,81.81
2023-02-06T02:13:38.406Z,82.99
2023-02-06T02:16:16.380Z,82.48
2023-02-06T02:18:58.453Z,83.20
2023-02-06T02:22:05.721Z,82.27
2023-02-06T02:24:56.175Z,82.78
2023-02-06T02:27:44.465Z,81.83
2023-02-06T02:30:57.465Z,83.32
2023-02-06T02:33:47.944Z,83.38
2023-02-06T02:36:23.802Z,83.20
2023-02-06T02:39:02.414Z,82.48
2023-02-06T02:41:40.269Z,82.40
2023-02-06T02:44:11.585Z,81.50
2023-02-06T02:46:44.141Z,82.51
2023-02-06T02:49:16.134Z,83.53
2023-02-06T02:51:49.147Z,84.60
2023-02-06T02:54:17.271Z,83.77
2023-02-06T02:56:45.728Z,83.61
2023-02-06T02:59:19.390Z,84.91
2023-02-06T03:02:00.235Z,85.68
2023-02-06T03:04:33.287Z,85.55
2023-02-06T03:07:11.463Z,85.04
2023-02-06T03:09:54.446Z,84.17
2023-02-06T03:12:28.908Z,84.40
2023-02-06T03:15:01.045Z,85.65
2023-02-06T03:17:35.100Z,85.36
2023-02-06T03:20:05.592Z,84.72
2023-02-06T03:22:36.988Z,84.65
2023-02-06T03:25:11.489Z,85.37
2023-02-06T03:27:42.067Z,85.18
2023-02-06T03:30:13.418Z,84.25
2023-02-06T03:32:46.634Z,84.84
2023-02-06T03:35:17.816Z,85.00
2023-02-06T03:37:48.861Z,84.77
2023-02-06T03:40:18.452Z,84.70
2023-02-06T03:42:51.872Z,84.99
2023-02-06T03:45:25.760Z,85.00
2023-02-06T03:47:55.884Z,85.08
2023-02-06T03:50:26.790Z,85.41
2023-02-06T03:53:00.205Z,85.47
2023-02-06T03:55:28.356Z,85.88
2023-02-06T03:58:00.420Z,86.17
2023-02-06T04:00:30.429Z,86.03
2023-02-06T04:02:59.981Z,85.60
2023-02-06T04:05:28.637Z,84.24
2023-02-06T04:07:58.165Z,84.23
2023-02-06T04:10:26.559Z,85.99
2023-02-06T04:12:55.005Z,85.98
2023-02-06T04:15:23.275Z,85.90
2023-02-06T04:17:59.848Z,86.31
2023-02-06T04:20:29.337Z,87.19
2023-02-06T04:22:59.065Z,87.26
2023-02-06T04:25:27.280Z,87.41
2023-02-06T04:27:55.489Z,88.21
2023-02-06T04:30:23.814Z,87.94
2023-02-06T04:32:52.015Z,87.62
2023-02-06T04:35:20.784Z,86.58
2023-02-06T04:37:48.984Z,86.76
2023-02-06T04:40:19.011Z,87.13
2023-02-06T04:42:47.302Z,86.98
2023-02-06T04:45:15.662Z,87.79
2023-02-06T04:47:43.873Z,86.75
2023-02-06T04:50:12.384Z,87.38
2023-02-06T04:52:40.571Z,86.89
2023-02-06T04:55:09.587Z,87.31
2023-02-06T04:57:39.579Z,88.28
2023-02-06T05:00:09.429Z,88.43
2023-02-06T05:02:39.974Z,88.98
2023-02-06T05:05:10.030Z,88.50
2023-02-06T05:07:38.884Z,89.02
2023-02-06T05:10:09.048Z,88.88
2023-02-06T05:12:38.704Z,89.70
2023-02-06T05:15:07.678Z,89.01
2023-02-06T05:17:35.849Z,87.43
2023-02-06T05:20:04.020Z,87.87
2023-02-06T05:22:32.156Z,87.99
2023-02-06T05:25:00.304Z,89.07
2023-02-06T05:27:28.511Z,89.31
2023-02-06T05:29:58.104Z,88.14
2023-02-06T05:32:26.281Z,88.69
2023-02-06T05:34:54.445Z,88.84
2023-02-06T05:37:22.619Z,88.99
2023-02-06T05:39:50.816Z,90.01
2023-02-06T05:42:18.907Z,89.77
2023-02-06T05:44:47.010Z,89.49
2023-02-06T05:47:16.563Z,89.76
2023-02-06T05:49:45.111Z,90.30
2023-02-06T05:52:13.425Z,90.68
2023-02-06T05:54:41.760Z,89.83
2023-02-06T05:57:10.024Z,90.12
2023-02-06T05:59:38.460Z,90.29
2023-02-06T06:02:07.056Z,91.01
2023-02-06T06:04:36.568Z,91.08
2023-02-06T06:07:04.881Z,91.53
2023-02-06T06:09:33.099Z,91.26
2023-02-06T06:12:01.864Z,91.79
2023-02-06T06:14:30.059Z,91.08
2023-02-06T06:16:58.273Z,90.46
2023-02-06T06:19:26.410Z,89.89
2023-02-06T06:21:58.192Z,89.71
2023-02-06T06:24:26.910Z,90.11
2023-02-06T06:26:55.048Z,90.24
2023-02-06T06:29:23.244Z,90.60
2023-02-06T06:31:51.556Z,90.59
2023-02-06T06:34:19.963Z,90.72
2023-02-06T06:36:48.182Z,89.56
2023-02-06T06:39:17.767Z,89.21
2023-02-06T06:41:46.032Z,89.70
2023-02-06T06:44:14.214Z,90.10
2023-02-06T06:46:42.428Z,90.60
2023-02-06T06:49:10.528Z,90.80
2023-02-06T06:51:38.717Z,91.88
2023-02-06T06:54:06.951Z,92.61
2023-02-06T06:56:36.477Z,92.36
2023-02-06T06:59:04.583Z,93.28
2023-02-06T07:01:32.669Z,94.12
2023-02-06T07:04:00.854Z,92.71
2023-02-06T07:06:29.236Z,93.29
2023-02-06T07:08:57.390Z,93.91
2023-02-06T07:11:26.237Z,93.79
2023-02-06T07:13:55.770Z,93.56
2023-02-06T07:16:24.733Z,94.03
2023-02-06T07:18:52.961Z,93.63
2023-02-06T07:21:21.095Z,94.03
2023-02-06T07:23:49.243Z,93.20
2023-02-06T07:26:17.407Z,93.26
2023-02-06T07:28:45.659Z,91.88
2023-02-06T07:31:15.249Z,91.33
2023-02-06T07:33:43.409Z,90.65
2023-02-06T07:36:12.720Z,90.36
2023-02-06T07:38:41.535Z,89.79
2023-02-06T07:41:11.189Z,88.25
2023-02-06T07:43:40.949Z,86.15
2023-02-06T07:46:09.130Z,85.07
2023-02-06T07:48:38.700Z,85.10
2023-02-06T07:51:08.598Z,84.00
2023-02-06T07:53:38.129Z,83.57
2023-02-06T07:56:12.057Z,84.77
2023-02-06T07:58:40.226Z,85.65
2023-02-06T08:01:08.641Z,87.39
2023-02-06T08:03:38.324Z,87.37
2023-02-06T08:06:10.494Z,86.76
2023-02-06T08:08:38.825Z,87.51
2023-02-06T08:11:07.898Z,87.46
2023-02-06T08:13:36.714Z,86.53
2023-02-06T08:16:07.094Z,86.20
2023-02-06T08:18:35.485Z,84.57
2023-02-06T08:21:07.232Z,83.90
2023-02-06T08:23:35.514Z,83.53
2023-02-06T08:26:04.423Z,83.64
2023-02-06T08:28:35.166Z,82.52
2023-02-06T08:31:09.635Z,82.44
2023-02-06T08:33:38.107Z,81.89
2023-02-06T08:36:09.241Z,81.69
2023-02-06T08:38:37.538Z,82.34
2023-02-06T08:41:06.183Z,82.09
2023-02-06T08:43:34.318Z,82.21
2023-02-06T08:46:02.486Z,82.03
2023-02-06T08:48:30.574Z,81.73
2023-02-06T08:51:11.382Z,79.11
2023-02-06T08:53:40.323Z,79.82
2023-02-06T08:56:11.296Z,78.83
2023-02-06T08:58:40.698Z,79.22
2023-02-06T09:01:09.917Z,79.87
2023-02-06T09:03:38.410Z,80.44
2023-02-06T09:06:10.336Z,81.49
2023-02-06T09:08:39.763Z,83.06
2023-02-06T09:11:09.075Z,82.29
2023-02-06T09:13:38.033Z,79.49
2023-02-06T09:16:07.541Z,78.96
2023-02-06T09:18:36.023Z,80.28
2023-02-06T09:21:11.559Z,79.90
2023-02-06T09:23:40.000Z,79.07
2023-02-06T09:26:08.206Z,78.79
2023-02-06T09:28:36.359Z,78.40
2023-02-06T09:31:05.186Z,78.23
2023-02-06T09:33:33.410Z,77.50
2023-02-06T09:36:06.114Z,76.44
2023-02-06T09:38:36.562Z,74.65
2023-02-06T09:41:08.217Z,74.38
2023-02-06T09:43:36.828Z,72.69
2023-02-06T09:46:09.118Z,71.02
2023-02-06T09:48:40.792Z,69.12
2023-02-06T09:51:18.295Z,70.50
2023-02-06T09:54:00.885Z,72.57
2023-02-06T09:56:37.740Z,70.33
2023-02-06T09:59:14.485Z,68.91
2023-02-06T10:01:47.592Z,68.68
2023-02-06T10:04:39.337Z,70.15
2023-02-06T10:07:19.932Z,69.87
2023-02-06T10:09:53.632Z,70.24
2023-02-06T10:12:26.540Z,68.92
2023-02-06T10:14:59.904Z,67.82
2023-02-06T10:17:32.366Z,69.06
2023-02-06T10:20:03.958Z,68.76
2023-02-06T10:22:40.290Z,67.63
2023-02-06T10:25:22.403Z,67.93
2023-02-06T10:27:55.953Z,69.08
2023-02-06T10:30:34.442Z,67.72
2023-02-06T10:33:20.298Z,69.95
2023-02-06T10:36:01.898Z,69.00
2023-02-06T10:38:44.152Z,68.75
2023-02-06T10:41:22.362Z,66.55
2023-02-06T10:43:57.235Z,68.73
2023-02-06T10:46:39.675Z,71.70
2023-02-06T10:49:18.200Z,69.41
2023-02-06T10:51:51.900Z,68.56
2023-02-06T10:54:24.478Z,66.44
2023-02-06T10:56:57.038Z,67.13
2023-02-06T10:59:30.301Z,68.20
2023-02-06T11:02:15.553Z,68.13
2023-02-06T11:04:49.019Z,68.08
2023-02-06T11:07:25.171Z,68.79
2023-02-06T11:09:53.797Z,69.72
2023-02-06T11:12:31.438Z,68.93
2023-02-06T11:15:03.488Z,68.92
2023-02-06T11:17:32.366Z,67.26
2023-02-06T11:20:16.409Z,69.72
2023-02-06T11:22:52.801Z,68.80
2023-02-06T11:25:26.154Z,67.13
2023-02-06T11:27:56.475Z,65.71
2023-02-06T11:30:36.468Z,67.01
2023-02-06T11:33:07.491Z,68.88
2023-02-06T11:35:40.090Z,68.66
2023-02-06T11:38:16.150Z,67.31
2023-02-06T11:40:45.161Z,66.12
2023-02-06T11:43:23.051Z,67.48
2023-02-06T11:46:06.062Z,66.89
2023-02-06T11:48:37.194Z,66.78
2023-02-06T11:51:06.805Z,66.15
2023-02-06T11:53:35.622Z,64.49
2023-02-06T11:56:07.898Z,62.17
2023-02-06T11:58:37.607Z,61.66
2023-02-06T12:01:09.626Z,60.57
2023-02-06T12:03:40.208Z,59.85
2023-02-06T12:06:14.267Z,59.81
2023-02-06T12:08:49.830Z,59.31
2023-02-06T12:11:26.488Z,59.03
2023-02-06T12:14:00.455Z,59.79
2023-02-06T12:16:29.055Z,60.31
2023-02-06T12:18:59.109Z,61.24
2023-02-06T12:21:33.890Z,63.85
2023-02-06T12:24:06.003Z,63.31
2023-02-06T12:26:38.253Z,63.88
2023-02-06T12:29:14.796Z,63.97
2023-02-06T12:31:47.802Z,63.93
2023-02-06T12:34:20.331Z,62.92
2023-02-06T12:37:00.213Z,63.15
2023-02-06T12:39:33.090Z,62.95
2023-02-06T12:42:33.710Z,64.58
2023-02-06T12:45:09.252Z,64.20
2023-02-06T12:47:44.817Z,63.81
2023-02-06T12:50:18.288Z,63.10
2023-02-06T12:52:51.411Z,62.05
2023-02-06T12:55:24.724Z,62.05
2023-02-06T12:57:54.212Z,61.27
2023-02-06T13:00:45.011Z,60.06
2023-02-06T13:03:30.350Z,60.51
2023-02-06T13:06:12.367Z,61.30
2023-02-06T13:08:46.271Z,60.43
2023-02-06T13:11:27.725Z,60.52
2023-02-06T13:14:06.033Z,59.59
2023-02-06T13:16:45.467Z,58.58
2023-02-06T13:19:29.379Z,59.82
2023-02-06T13:22:29.787Z,60.46
2023-02-06T13:24:59.256Z,61.03
2023-02-06T13:27:38.992Z,61.23
2023-02-06T13:30:48.425Z,63.36
2023-02-06T13:33:20.560Z,64.50
2023-02-06T13:35:58.838Z,63.40
2023-02-06T13:38:37.107Z,63.27
2023-02-06T13:41:29.419Z,63.55
2023-02-06T13:44:00.773Z,65.64
2023-02-06T13:46:47.932Z,65.95
2023-02-06T13:49:39.726Z,65.51
2023-02-06T13:52:16.155Z,64.82
2023-02-06T13:55:17.035Z,63.32
2023-02-06T13:58:01.775Z,64.58
2023-02-06T14:00:33.169Z,66.41
2023-02-06T14:03:07.995Z,66.38
2023-02-06T14:05:52.779Z,66.95
2023-02-06T14:08:28.176Z,68.28
2023-02-06T14:11:31.186Z,68.93
2023-02-06T14:14:28.592Z,71.01
2023-02-06T14:17:08.084Z,68.74
2023-02-06T14:19:44.322Z,69.23
2023-02-06T14:22:25.106Z,70.49
2023-02-06T14:25:13.145Z,70.53
2023-02-06T14:27:55.209Z,71.21
2023-02-06T14:30:36.355Z,70.58
2023-02-06T14:33:19.839Z,71.28
2023-02-06T14:35:59.305Z,71.87
2023-02-06T14:38:45.002Z,70.68
2023-02-06T14:41:13.437Z,70.42
2023-02-06T14:43:45.794Z,70.43
2023-02-06T14:46:17.194Z,70.14
2023-02-06T14:48:48.444Z,70.10
2023-02-06T14:51:23.788Z,69.51
2023-02-06T14:53:58.382Z,68.93
2023-02-06T14:56:30.420Z,69.13
2023-02-06T14:59:09.677Z,68.63
2023-02-06T15:01:37.902Z,68.08
2023-02-06T15:04:12.497Z,68.87
2023-02-06T15:06:42.748Z,68.77
2023-02-06T15:09:26.327Z,66.93
2023-02-06T15:11:57.546Z,66.74
2023-02-06T15:14:27.762Z,68.26
2023-02-06T15:16:59.931Z,67.80
2023-02-06T15:19:30.173Z,66.63
2023-02-06T15:22:02.136Z,66.88
2023-02-06T15:25:06.064Z,66.33
2023-02-06T15:27:35.921Z,67.06
2023-02-06T15:30:17.885Z,66.83
2023-02-06T15:32:50.219Z,67.44
2023-02-06T15:35:24.072Z,67.79
2023-02-06T15:37:54.103Z,68.81
2023-02-06T15:40:28.010Z,69.10
2023-02-06T15:42:56.891Z,69.11
2023-02-06T15:45:28.409Z,69.21
2023-02-06T15:47:57.396Z,70.08
2023-02-06T15:50:28.586Z,70.28
2023-02-06T15:52:57.341Z,69.76
2023-02-06T15:55:29.979Z,69.81
2023-02-06T15:57:59.830Z,70.61
2023-02-06T16:00:30.842Z,71.74
2023-02-06T16:03:03.334Z,71.52
2023-02-06T16:05:33.945Z,72.52
2023-02-06T16:08:04.671Z,73.20
2023-02-06T16:10:38.151Z,73.76
2023-02-06T16:13:12.542Z,74.23
2023-02-06T16:15:42.237Z,74.89
2023-02-06T16:18:27.402Z,74.63
2023-02-06T16:21:12.901Z,74.22
2023-02-06T16:23:49.407Z,74.25
2023-02-06T16:26:20.686Z,73.91
2023-02-06T16:28:58.564Z,74.04
2023-02-06T16:31:28.115Z,73.77
2023-02-06T16:34:03.275Z,73.46
2023-02-06T16:36:33.680Z,73.02
2023-02-06T16:39:04.349Z,73.49
2023-02-06T16:41:37.187Z,75.01
2023-02-06T16:44:13.164Z,74.51
2023-02-06T16:46:41.401Z,76.22
2023-02-06T16:49:13.234Z,77.43
2023-02-06T16:51:43.297Z,78.45
2023-02-06T16:54:20.286Z,78.17
2023-02-06T16:56:50.584Z,77.35
2023-02-06T16:59:18.829Z,76.86
2023-02-06T17:01:47.139Z,77.66
2023-02-06T17:04:15.829Z,79.59
2023-02-06T17:06:44.128Z,81.73
2023-02-06T17:09:16.045Z,79.32
2023-02-06T17:11:44.184Z,80.36
2023-02-06T17:14:13.838Z,79.90
2023-02-06T17:16:42.023Z,81.47
2023-02-06T17:19:14.991Z,82.97
2023-02-06T17:21:43.196Z,82.69
2023-02-06T17:24:11.346Z,82.87
2023-02-06T17:26:39.551Z,83.55
2023-02-06T17:29:07.656Z,82.60
2023-02-06T17:31:37.388Z,82.49
2023-02-06T17:34:05.580Z,84.31
2023-02-06T17:36:39.673Z,85.35
2023-02-06T17:39:08.537Z,84.81
2023-02-06T17:41:36.680Z,83.54
2023-02-06T17:44:05.107Z,83.76
2023-02-06T17:46:33.353Z,85.57
2023-02-06T17:49:02.978Z,86.09
2023-02-06T17:51:31.182Z,86.93
2023-02-06T17:53:59.960Z,87.11
2023-02-06T17:56:28.211Z,87.35
2023-02-06T17:58:56.406Z,86.98
2023-02-06T18:01:25.509Z,85.42
2023-02-06T18:03:54.190Z,85.43
2023-02-06T18:06:23.808Z,84.60
2023-02-06T18:08:52.005Z,84.53
2023-02-06T18:11:22.201Z,85.39
2023-02-06T18:13:51.176Z,84.23
2023-02-06T18:16:21.830Z,84.48
2023-02-06T18:18:50.573Z,85.58
2023-02-06T18:21:20.697Z,86.33
2023-02-06T18:23:50.387Z,86.69
2023-02-06T18:26:19.574Z,87.46
2023-02-06T18:28:47.767Z,86.31
2023-02-06T18:31:28.879Z,86.15
2023-02-06T18:33:58.778Z,85.55
2023-02-06T18:36:27.831Z,85.40
2023-02-06T18:38:57.791Z,86.21
2023-02-06T18:41:43.395Z,86.57
2023-02-06T18:44:12.477Z,87.39
2023-02-06T18:46:41.030Z,87.25
2023-02-06T18:49:09.636Z,86.11
2023-02-06T18:51:37.916Z,86.54
2023-02-06T18:54:10.126Z,87.50
2023-02-06T18:56:38.354Z,87.05
2023-02-06T18:59:07.199Z,87.62
2023-02-06T19:01:35.897Z,87.00
2023-02-06T19:04:04.190Z,86.47
2023-02-06T19:06:36.608Z,86.29
2023-02-06T19:09:09.637Z,86.67
2023-02-06T19:11:39.192Z,88.80
2023-02-06T19:14:10.139Z,88.68
2023-02-06T19:16:39.438Z,88.23
2023-02-06T19:19:08.782Z,87.96
2023-02-06T19:21:37.064Z,88.26
2023-02-06T19:24:06.258Z,86.79
2023-02-06T19:26:43.155Z,87.52
2023-02-06T19:29:14.791Z,87.10
2023-02-06T19:31:43.196Z,87.04
2023-02-06T19:34:11.748Z,86.83
2023-02-06T19:36:40.242Z,87.10
2023-02-06T19:39:12.517Z,87.33
2023-02-06T19:41:42.529Z,87.61
2023-02-06T19:44:16.173Z,88.52
2023-02-06T19:46:46.327Z,89.10
2023-02-06T19:49:19.313Z,89.29
2023-02-06T19:51:51.802Z,89.42
2023-02-06T19:54:20.456Z,89.64
2023-02-06T19:56:50.479Z,89.61
2023-02-06T19:59:20.985Z,89.66
2023-02-06T20:01:51.252Z,89.85
2023-02-06T20:04:22.911Z,89.43
2023-02-06T20:06:51.321Z,89.47
2023-02-06T20:09:21.578Z,88.79
2023-02-06T20:11:53.750Z,88.78
2023-02-06T20:14:22.879Z,89.37
2023-02-06T20:16:51.158Z,89.86
2023-02-06T20:19:21.970Z,89.95
2023-02-06T20:21:53.169Z,91.16
2023-02-06T20:24:23.606Z,89.89
2023-02-06T20:26:56.021Z,89.40
2023-02-06T20:29:27.618Z,88.47
2023-02-06T20:31:56.787Z,88.97
2023-02-06T20:34:27.001Z,89.31
2023-02-06T20:36:55.949Z,89.41
2023-02-06T20:39:24.517Z,89.75
2023-02-06T20:41:54.588Z,90.03
2023-02-06T20:44:24.415Z,90.25
2023-02-06T20:46:52.665Z,90.74
2023-02-06T20:49:23.169Z,90.06
2023-02-06T20:51:52.767Z,91.00
2023-02-06T20:54:21.891Z,90.85
2023-02-06T20:56:52.405Z,90.68
2023-02-06T20:59:22.376Z,90.86
2023-02-06T21:01:50.618Z,90.54
2023-02-06T21:04:19.741Z,90.92
2023-02-06T21:06:50.084Z,91.56
2023-02-06T21:09:19.404Z,90.94
2023-02-06T21:11:50.138Z,91.01
2023-02-06T21:14:19.283Z,91.14
2023-02-06T21:16:49.698Z,91.80
2023-02-06T21:19:21.398Z,92.22
2023-02-06T21:21:50.305Z,91.93
2023-02-06T21:24:19.190Z,91.62
2023-02-06T21:26:47.365Z,92.20
2023-02-06T21:29:16.619Z,93.27
2023-02-06T21:31:46.351Z,93.54
2023-02-06T21:34:19.367Z,93.79
2023-02-06T21:36:48.356Z,93.11
2023-02-06T21:39:19.277Z,93.11
2023-02-06T21:41:51.796Z,93.85
2023-02-06T21:44:20.012Z,93.89
2023-02-06T21:46:48.377Z,93.52
2023-02-06T21:49:18.201Z,93.43
2023-02-06T21:51:46.811Z,92.78
2023-02-06T21:54:14.972Z,93.20
2023-02-06T21:56:43.255Z,93.42
2023-02-06T21:59:12.856Z,93.23
2023-02-06T22:01:42.487Z,92.70
2023-02-06T22:04:12.150Z,92.10
2023-02-06T22:06:42.026Z,92.53
2023-02-06T22:09:15.261Z,93.37
2023-02-06T22:11:43.552Z,93.86
2023-02-06T22:14:13.171Z,93.85
2023-02-06T22:16:42.257Z,94.15
2023-02-06T22:19:12.230Z,94.93
2023-02-06T22:21:42.244Z,95.06
2023-02-06T22:24:12.796Z,94.59
2023-02-06T22:26:41.662Z,94.36
2023-02-06T22:29:13.455Z,93.84
2023-02-06T22:31:43.563Z,94.30
2023-02-06T22:34:16.542Z,94.78
2023-02-06T22:36:46.885Z,94.07
2023-02-06T22:39:16.488Z,93.09
2023-02-06T22:41:46.132Z,93.05
2023-02-06T22:44:16.607Z,93.23
2023-02-06T22:46:46.511Z,93.53
2023-02-06T22:49:14.824Z,94.05
2023-02-06T22:51:43.310Z,95.31
2023-02-06T22:54:14.125Z,94.52
2023-02-06T22:56:42.939Z,95.57
2023-02-06T22:59:13.740Z,96.31
2023-02-06T23:01:44.534Z,96.60
2023-02-06T23:04:15.189Z,97.10
2023-02-06T23:06:44.019Z,97.28
2023-02-06T23:09:16.893Z,96.53
2023-02-06T23:11:45.953Z,96.38
2023-02-06T23:14:15.759Z,96.08
2023-02-06T23:16:44.190Z,95.98
2023-02-06T23:19:14.418Z,95.19
2023-02-06T23:21:44.099Z,95.31
2023-02-06T23:24:13.055Z,95.46
2023-02-06T23:26:45.058Z,95.48
2023-02-06T23:29:17.312Z,95.16
2023-02-06T23:31:46.071Z,94.67
2023-02-06T23:34:14.881Z,95.00
2023-02-06T23:36:43.780Z,95.89
2023-02-06T23:39:12.727Z,95.43
2023-02-06T23:41:41.142Z,96.35
2023-02-06T23:44:11.891Z,96.88
2023-02-06T23:46:41.302Z,96.07
2023-02-06T23:49:10.191Z,97.43
2023-02-06T23:51:39.050Z,96.58
2023-02-06T23:54:08.234Z,95.88
2023-02-06T23:56:36.964Z,95.65
2023-02-06T23:59:06.237Z,95.73
